Time;durP1;ratioP1;P1;durP2;ratioP2;P2;SDS_P1;SDS_P2;PMS_P1;PMS_P2;Temp;Humidity;BMP_temperature;BMP_pressure;BME280_temperature;BME280_humidity;BME280_pressure;Samples;Min_cycle;Max_cycle;Signal;HPM_P1;HPM_P2
2024/02/07 00:00:19;;;;;;;19.90;9.03;;;5.90;90.60;;;;;;5017843;28;20236;-91
2024/02/07 00:02:44;;;;;;;16.33;9.27;;;6.00;90.70;;;;;;5016790;28;20180;-89
2024/02/07 00:05:10;;;;;;;18.00;9.57;;;5.90;90.70;;;;;;5035730;28;20184;-90
2024/02/07 00:07:37;;;;;;;24.23;10.63;;;5.90;90.70;;;;;;5035513;28;20256;-91
2024/02/07 00:10:03;;;;;;;18.33;9.20;;;5.90;90.60;;;;;;5031040;28;20177;-90
2024/02/07 00:12:29;;;;;;;22.43;9.53;;;5.90;90.60;;;;;;5028211;28;20172;-90
2024/02/07 00:14:55;;;;;;;13.57;9.40;;;5.90;90.50;;;;;;5031678;28;20181;-92
2024/02/07 00:17:21;;;;;;;21.70;9.50;;;6.00;90.10;;;;;;5033770;28;20287;-91
2024/02/07 00:19:47;;;;;;;13.13;8.93;;;5.90;90.10;;;;;;5033420;28;20200;-92
2024/02/07 00:22:13;;;;;;;15.87;9.37;;;6.00;90.10;;;;;;5033122;28;20192;-90
2024/02/07 00:24:39;;;;;;;19.30;9.63;;;5.90;90.20;;;;;;5036791;28;20168;-90
2024/02/07 00:27:05;;;;;;;19.57;9.87;;;6.00;90.10;;;;;;5032195;28;20181;-89
2024/02/07 00:29:31;;;;;;;13.50;9.73;;;6.00;90.10;;;;;;5032047;28;20184;-89
2024/02/07 00:31:56;;;;;;;21.73;9.43;;;6.00;90.40;;;;;;5030451;28;20567;-89
2024/02/07 00:34:22;;;;;;;42.23;10.57;;;6.00;90.40;;;;;;5029337;28;20184;-89
2024/02/07 00:36:48;;;;;;;26.63;11.07;;;6.00;90.40;;;;;;5027886;28;20200;-91
2024/02/07 00:39:13;;;;;;;19.90;9.80;;;6.00;90.30;;;;;;5030052;28;20191;-92
2024/02/07 00:41:39;;;;;;;25.37;10.83;;;6.00;90.40;;;;;;5030982;28;20173;-90
2024/02/07 00:44:05;;;;;;;23.97;10.87;;;6.00;90.10;;;;;;5031282;28;20553;-91
2024/02/07 00:46:31;;;;;;;23.40;11.10;;;6.00;90.10;;;;;;5030348;28;20211;-91
2024/02/07 00:48:58;;;;;;;26.33;11.33;;;6.00;90.20;;;;;;5032440;28;20235;-91
2024/02/07 00:51:24;;;;;;;19.17;11.03;;;6.00;90.20;;;;;;5031449;28;20176;-91
2024/02/07 00:53:50;;;;;;;;;;;6.10;90.00;;;;;;5034062;28;20227;-91
2024/02/07 00:56:15;;;;;;;;;;;6.10;89.90;;;;;;5032956;28;19908;-91
2024/02/07 00:58:41;;;;;;;23.20;10.40;;;6.00;90.00;;;;;;5032920;28;19905;-90
2024/02/07 01:01:08;;;;;;;28.73;10.87;;;6.00;90.00;;;;;;5032474;28;20240;-91
2024/02/07 01:03:34;;;;;;;27.90;20.83;;;6.00;90.00;;;;;;5031496;28;20181;-91
2024/02/07 01:06:00;;;;;;;23.53;21.00;;;6.00;90.10;;;;;;5031725;28;20191;-91
2024/02/07 01:08:25;;;;;;;32.73;24.13;;;6.10;89.90;;;;;;5032195;28;20192;-91
2024/02/07 01:10:51;;;;;;;30.67;21.30;;;6.00;89.70;;;;;;5031894;28;20180;-90
2024/02/07 01:13:16;;;;;;;32.20;21.93;;;6.10;89.70;;;;;;5031778;28;20203;-90
2024/02/07 01:15:43;;;;;;;30.30;21.07;;;6.00;90.00;;;;;;5032499;28;20191;-91
2024/02/07 01:18:08;;;;;;;28.17;20.40;;;6.00;89.60;;;;;;5033938;28;20173;-91
2024/02/07 01:20:34;;;;;;;28.90;22.50;;;6.00;89.60;;;;;;5033304;28;20172;-91
2024/02/07 01:23:00;;;;;;;24.57;21.23;;;6.00;89.60;;;;;;5033654;28;20656;-91
2024/02/07 01:25:26;;;;;;;27.37;21.13;;;6.00;89.90;;;;;;5035546;28;20179;-90
2024/02/07 01:27:52;;;;;;;31.63;22.87;;;5.90;89.90;;;;;;5033127;28;20684;-90
2024/02/07 01:30:18;;;;;;;24.13;20.73;;;6.00;89.80;;;;;;5034175;28;20184;-91
2024/02/07 01:32:44;;;;;;;25.37;21.03;;;6.00;89.90;;;;;;5029663;28;20273;-91
2024/02/07 01:35:10;;;;;;;31.93;21.30;;;5.90;89.90;;;;;;5031958;28;20196;-90
2024/02/07 01:37:38;;;;;;;33.40;21.00;;;5.90;89.90;;;;;;5033639;28;20216;-91
2024/02/07 01:40:09;;;;;;;26.27;20.60;;;5.90;89.80;;;;;;5037964;28;20157;-91
2024/02/07 01:42:35;;;;;;;29.47;21.20;;;5.90;90.00;;;;;;5049714;28;20252;-91
2024/02/07 01:45:31;;;;;;;36.23;22.67;;;5.90;89.90;;;;;;5034664;28;20248;-90
2024/02/07 01:47:57;;;;;;;23.70;11.07;;;5.90;89.90;;;;;;5051727;28;20205;-90
2024/02/07 01:50:24;;;;;;;31.03;12.23;;;5.90;89.90;;;;;;5037032;28;20211;-90
2024/02/07 01:52:54;;;;;;;23.03;11.10;;;5.90;89.80;;;;;;5039730;28;20216;-90
2024/02/07 01:55:20;;;;;;;29.90;11.53;;;5.90;89.70;;;;;;5039359;28;20165;-90
2024/02/07 01:57:48;;;;;;;18.80;9.93;;;5.90;89.90;;;;;;5036304;28;20235;-90
2024/02/07 02:00:15;;;;;;;21.13;10.83;;;5.90;89.90;;;;;;5036075;28;20153;-91
2024/02/07 02:02:46;;;;;;;27.30;10.65;;;5.90;89.90;;;;;;5036914;28;20200;-90
2024/02/07 02:05:12;;;;;;;;;;;5.90;89.70;;;;;;5039022;28;19980;-90
2024/02/07 02:07:38;;;;;;;;;;;5.90;89.60;;;;;;5039612;28;19909;-91
2024/02/07 02:10:07;;;;;;;;;;;5.90;89.40;;;;;;5039578;28;19944;-91
2024/02/07 02:12:33;;;;;;;;;;;5.90;89.40;;;;;;5038803;28;19928;-90
2024/02/07 02:14:58;;;;;;;29.13;11.80;;;5.90;89.50;;;;;;5039595;28;20198;-90
2024/02/07 02:17:25;;;;;;;21.37;12.80;;;5.90;89.50;;;;;;5038473;28;20231;-91
2024/02/07 02:19:50;;;;;;;23.03;12.40;;;5.90;89.40;;;;;;5035015;28;20244;-91
2024/02/07 02:22:38;;;;;;;34.57;13.40;;;5.90;89.30;;;;;;5036027;28;20569;-90
2024/02/07 02:25:16;;;;;;;30.07;14.50;;;5.90;89.20;;;;;;5033856;28;20195;-92
2024/02/07 02:27:56;;;;;;;31.07;16.60;;;5.80;88.20;;;;;;5032452;28;20200;-92
2024/02/07 02:30:33;;;;;;;24.03;15.87;;;5.90;86.90;;;;;;5032263;28;20175;-91
2024/02/07 02:33:03;;;;;;;32.70;17.77;;;5.90;86.70;;;;;;5032826;28;20632;-90
2024/02/07 02:35:33;;;;;;;33.77;19.50;;;5.90;86.10;;;;;;5031871;28;20165;-92
2024/02/07 02:37:59;;;;;;;29.53;18.43;;;5.80;85.70;;;;;;5032252;28;20201;-91
2024/02/07 02:40:25;;;;;;;34.23;19.87;;;5.80;85.10;;;;;;5029699;28;20227;-91
2024/02/07 02:42:50;;;;;;;38.60;20.07;;;5.80;83.70;;;;;;5032116;28;20181;-91
2024/02/07 02:45:16;;;;;;;31.83;18.80;;;5.80;84.00;;;;;;5033824;28;20173;-91
2024/02/07 02:47:42;;;;;;;24.27;18.80;;;5.80;84.20;;;;;;5031954;28;20200;-90
2024/02/07 02:50:08;;;;;;;35.13;20.07;;;5.80;83.70;;;;;;5030620;28;20181;-91
2024/02/07 02:52:35;;;;;;;38.90;19.83;;;5.70;84.30;;;;;;5030249;28;20197;-90
2024/02/07 02:55:00;;;;;;;31.57;18.90;;;5.80;84.50;;;;;;5034263;28;20191;-92
2024/02/07 02:57:31;;;;;;;28.60;18.80;;;5.70;84.50;;;;;;5030799;28;20240;-89
2024/02/07 02:59:56;;;;;;;40.53;18.40;;;5.70;84.20;;;;;;5027889;28;20268;-90
2024/02/07 03:02:22;;;;;;;29.43;24.97;;;5.70;84.60;;;;;;5031300;28;20181;-89
2024/02/07 03:04:49;;;;;;;40.37;36.20;;;5.70;84.60;;;;;;5025770;28;20215;-89
2024/02/07 03:10:06;;;;;;;46.27;36.30;;;5.70;85.20;;;;;;5046495;28;20547;-91
2024/02/07 03:12:32;;;;;;;37.93;33.83;;;5.60;85.10;;;;;;5029463;28;20602;-91
2024/02/07 03:14:57;;;;;;;40.80;32.77;;;5.60;85.10;;;;;;5027483;28;20188;-89
2024/02/07 03:17:23;;;;;;;45.37;35.87;;;5.70;85.30;;;;;;5028341;28;20219;-90
2024/02/07 03:19:49;;;;;;;39.10;33.93;;;5.70;85.20;;;;;;5026731;28;20234;-90
2024/02/07 03:22:15;;;;;;;46.93;34.23;;;5.70;85.10;;;;;;5025594;28;20655;-90
2024/02/07 03:24:41;;;;;;;39.73;34.00;;;5.70;84.60;;;;;;5029655;28;20177;-92
2024/02/07 03:27:08;;;;;;;38.73;34.03;;;5.80;84.30;;;;;;5026020;28;20197;-91
2024/02/07 03:29:34;;;;;;;37.37;33.53;;;5.70;84.70;;;;;;5027526;28;20234;-91
2024/02/07 03:31:59;;;;;;;45.10;34.17;;;5.70;84.70;;;;;;5026163;28;20193;-90
2024/02/07 03:34:25;;;;;;;45.50;32.93;;;5.70;84.60;;;;;;5029067;28;20181;-92
2024/02/07 03:36:50;;;;;;;43.90;31.50;;;5.70;85.20;;;;;;5029951;28;20263;-89
2024/02/07 03:39:16;;;;;;;39.63;29.60;;;5.50;86.40;;;;;;5029891;28;20179;-91
2024/02/07 03:41:42;;;;;;;30.97;27.83;;;5.50;86.90;;;;;;5048473;28;20177;-92
2024/02/07 03:44:12;;;;;;;36.87;29.80;;;5.40;87.20;;;;;;5033162;28;20345;-91
2024/02/07 03:46:42;;;;;;;38.23;27.50;;;5.30;87.50;;;;;;5035205;28;20254;-92
2024/02/07 03:49:09;;;;;;;38.40;28.17;;;5.30;87.90;;;;;;5029955;28;20287;-91
2024/02/07 03:51:35;;;;;;;37.93;26.60;;;5.30;87.90;;;;;;5034466;28;20248;-91
2024/02/07 03:54:04;;;;;;;36.20;16.73;;;5.30;87.90;;;;;;5033066;28;20172;-92
2024/02/07 03:56:30;;;;;;;33.77;14.87;;;5.30;87.90;;;;;;5036854;28;20188;-90
2024/02/07 03:58:57;;;;;;;25.07;13.73;;;5.30;87.80;;;;;;5034183;28;20219;-90
2024/02/07 04:01:23;;;;;;;15.80;14.20;;;5.30;87.80;;;;;;5034007;28;20227;-90
2024/02/07 04:03:49;;;;;;;16.30;13.17;;;5.20;86.60;;;;;;5034431;28;20183;-90
2024/02/07 04:06:15;;;;;;;24.77;14.83;;;5.10;87.10;;;;;;5034344;28;20177;-89
2024/02/07 04:08:42;;;;;;;18.63;14.27;;;5.10;87.50;;;;;;5035324;28;20199;-89
2024/02/07 04:11:12;;;;;;;23.27;14.23;;;5.00;87.60;;;;;;5032992;28;20161;-92
2024/02/07 05:16:18;;;;;;;29.67;20.30;;;4.70;84.70;;;;;;5047404;28;20195;-89
2024/02/07 05:18:44;;;;;;;38.23;22.37;;;4.60;84.10;;;;;;5031706;28;20193;-92
2024/02/07 05:21:11;;;;;;;26.70;21.80;;;4.70;83.20;;;;;;5029445;28;20272;-91
2024/02/07 05:23:40;;;;;;;32.30;21.93;;;4.60;82.90;;;;;;5031556;28;20188;-91
2024/02/07 05:26:06;;;;;;;45.33;40.63;;;4.60;82.30;;;;;;5030551;28;20628;-90
2024/02/07 05:28:32;;;;;;;47.37;42.40;;;4.60;81.10;;;;;;5028604;28;20210;-91
2024/02/07 05:30:57;;;;;;;50.47;45.13;;;4.50;80.80;;;;;;5045411;28;20214;-89
2024/02/07 05:33:23;;;;;;;48.40;43.80;;;4.50;81.50;;;;;;5028702;28;20225;-89
2024/02/07 05:35:49;;;;;;;51.20;46.37;;;4.40;81.20;;;;;;5027955;28;20192;-91
2024/02/07 05:38:14;;;;;;;49.37;44.50;;;4.40;80.50;;;;;;5026950;28;20200;-92
2024/02/07 05:40:40;;;;;;;50.70;46.13;;;4.40;80.30;;;;;;5029950;28;20234;-90
2024/02/07 05:43:06;;;;;;;52.23;47.17;;;4.40;80.30;;;;;;5027652;28;20203;-91
2024/02/07 05:45:32;;;;;;;49.77;44.97;;;4.40;79.90;;;;;;5027299;28;20176;-89
2024/02/07 05:47:58;;;;;;;49.80;45.13;;;4.40;79.40;;;;;;5025998;28;20241;-92
2024/02/07 05:50:23;;;;;;;49.87;45.73;;;4.40;79.20;;;;;;5026789;28;20217;-91
2024/02/07 05:52:51;;;;;;;51.90;47.40;;;4.30;79.70;;;;;;5032368;28;20260;-90
2024/02/07 05:55:16;;;;;;;51.97;47.60;;;4.30;78.60;;;;;;5025611;28;20173;-92
2024/02/07 05:57:42;;;;;;;54.78;49.83;;;4.30;78.40;;;;;;5023372;28;20622;-92
2024/02/07 06:00:09;;;;;;;54.37;49.60;;;4.30;78.10;;;;;;5022610;28;20180;-89
2024/02/07 06:02:36;;;;;;;54.03;49.40;;;4.30;78.00;;;;;;5023257;28;20184;-91
2024/02/07 06:05:03;;;;;;;52.60;48.20;;;4.30;78.50;;;;;;5024923;28;20698;-91
2024/02/07 06:07:33;;;;;;;50.47;46.07;;;4.30;79.00;;;;;;5021223;28;20236;-92
2024/02/07 06:09:59;;;;;;;51.33;46.10;;;4.30;79.20;;;;;;5025454;28;20212;-92
2024/02/07 06:12:24;;;;;;;49.10;44.50;;;4.30;79.20;;;;;;5021124;28;20187;-89
2024/02/07 06:14:50;;;;;;;49.10;43.73;;;4.30;79.40;;;;;;5036566;28;20172;-91
2024/02/07 06:17:15;;;;;;;49.77;45.50;;;4.30;79.50;;;;;;5018877;28;20211;-91
2024/02/07 06:19:44;;;;;;;44.33;40.70;;;4.30;80.00;;;;;;5029664;28;20184;-91
2024/02/07 06:22:14;;;;;;;47.47;42.87;;;4.30;79.70;;;;;;5021334;28;20241;-91
2024/02/07 06:24:39;;;;;;;48.23;44.10;;;4.20;80.40;;;;;;5019931;28;20192;-91
2024/02/07 06:27:05;;;;;;;50.00;45.33;;;4.20;80.40;;;;;;5018716;28;20188;-92
2024/02/07 06:29:31;;;;;;;48.30;43.83;;;4.20;80.80;;;;;;5019636;28;20566;-91
2024/02/07 06:31:58;;;;;;;47.37;42.83;;;4.20;81.00;;;;;;5020041;28;20718;-92
2024/02/07 06:34:24;;;;;;;25.23;22.60;;;4.10;81.30;;;;;;5019863;28;20183;-91
2024/02/07 06:36:50;;;;;;;31.60;22.30;;;4.10;80.70;;;;;;5021043;28;20721;-92
2024/02/07 06:39:15;;;;;;;24.90;22.30;;;4.00;80.90;;;;;;5021201;28;20253;-93
2024/02/07 06:41:41;;;;;;;28.63;23.93;;;4.00;80.60;;;;;;5021156;28;20177;-92
2024/02/07 06:44:07;;;;;;;29.90;24.80;;;4.00;80.20;;;;;;5020506;28;20172;-90
2024/02/07 06:46:41;;;;;;;31.83;25.83;;;4.00;80.50;;;;;;5019943;28;20555;-91
2024/02/07 06:49:07;;;;;;;34.90;23.97;;;4.00;80.30;;;;;;5020323;28;20234;-92
2024/02/07 06:51:32;;;;;;;30.30;25.30;;;4.00;79.80;;;;;;5020071;28;20241;-91
2024/02/07 06:53:58;;;;;;;29.57;24.30;;;4.00;79.70;;;;;;5037776;28;20168;-92
2024/02/07 06:56:23;;;;;;;27.23;23.97;;;4.00;79.90;;;;;;5023437;28;20204;-92
2024/02/07 06:58:49;;;;;;;29.03;24.27;;;3.90;80.20;;;;;;5045431;28;20281;-92
2024/02/07 07:01:15;;;;;;;37.30;24.57;;;3.90;80.00;;;;;;5022570;28;20295;-92
2024/02/07 07:03:41;;;;;;;29.93;24.83;;;3.90;80.30;;;;;;5021433;28;20233;-91
2024/02/07 07:06:06;;;;;;;27.27;24.10;;;3.90;80.10;;;;;;5020947;28;20179;-91
2024/02/07 07:08:32;;;;;;;29.77;23.80;;;3.90;80.20;;;;;;5018950;28;20304;-90
2024/02/07 07:10:57;;;;;;;34.63;24.70;;;3.90;80.10;;;;;;5017735;28;20238;-91
2024/02/07 07:13:23;;;;;;;25.20;22.70;;;3.80;80.30;;;;;;5019745;28;20192;-90
2024/02/07 07:15:49;;;;;;;31.97;23.27;;;3.80;80.60;;;;;;5018343;28;20180;-90
2024/02/07 07:18:15;;;;;;;39.17;24.07;;;3.80;80.80;;;;;;5001869;28;20299;-90
2024/02/07 07:20:41;;;;;;;26.97;22.87;;;3.80;80.90;;;;;;5017196;28;20204;-92
2024/02/07 07:23:06;;;;;;;23.80;21.37;;;3.80;80.80;;;;;;5017091;28;20180;-92
2024/02/07 07:25:32;;;;;;;25.30;22.63;;;3.80;81.20;;;;;;5016940;28;20203;-92
2024/02/07 07:27:57;;;;;;;;;;;3.80;81.50;;;;;;5017054;28;20207;-91
2024/02/07 07:30:23;;;;;;;;;;;3.70;81.70;;;;;;5017795;28;19974;-90
2024/02/07 07:32:48;;;;;;;;;;;3.80;81.50;;;;;;5017069;28;19912;-91
2024/02/07 07:35:14;;;;;;;;;;;3.80;81.30;;;;;;5017296;28;19905;-89
2024/02/07 07:37:39;;;;;;;;;;;3.80;81.60;;;;;;5016726;28;19913;-91
2024/02/07 07:40:05;;;;;;;;;;;3.80;81.80;;;;;;5018082;28;19905;-90
2024/02/07 07:42:30;;;;;;;;;;;3.90;81.70;;;;;;5017202;28;20012;-92
2024/02/07 07:44:56;;;;;;;;;;;4.00;81.00;;;;;;5017048;28;19908;-90
2024/02/07 07:47:21;;;;;;;;;;;3.90;81.40;;;;;;5017371;28;19923;-90
2024/02/07 07:49:47;;;;;;;;;;;3.80;81.90;;;;;;5017945;28;19911;-88
2024/02/07 07:52:12;;;;;;;;;;;3.90;81.70;;;;;;5016483;28;19921;-91
2024/02/07 07:54:38;;;;;;;;;;;3.90;81.50;;;;;;5016512;28;20035;-91
2024/02/07 07:57:07;;;;;;;;;;;3.80;81.90;;;;;;5016552;28;19932;-91
2024/02/07 07:59:33;;;;;;;;;;;3.80;82.10;;;;;;5017248;28;19905;-91
2024/02/07 08:01:59;;;;;;;;;;;3.80;82.00;;;;;;5018522;28;19944;-91
2024/02/07 08:04:24;;;;;;;;;;;3.90;81.10;;;;;;5016625;28;19905;-89
2024/02/07 08:06:50;;;;;;;;;;;3.80;81.40;;;;;;5018297;28;19912;-91
2024/02/07 08:09:18;;;;;;;;;;;3.80;81.70;;;;;;5016279;28;19956;-91
2024/02/07 08:11:46;;;;;;;;;;;3.90;82.00;;;;;;5034063;28;19905;-91
2024/02/07 08:14:12;;;;;;;;;;;4.00;81.80;;;;;;5016570;28;19905;-91
2024/02/07 08:16:37;;;;;;;;;;;4.10;81.60;;;;;;5018021;28;19963;-91
2024/02/07 08:19:03;;;;;;;;;;;4.20;81.20;;;;;;5022780;28;20369;-92
2024/02/07 08:21:30;;;;;;;;;;;4.10;81.80;;;;;;5017961;28;19905;-91
2024/02/07 08:23:57;;;;;;;;;;;4.20;82.40;;;;;;5033619;28;20317;-89
2024/02/07 08:26:23;;;;;;;;;;;4.10;83.00;;;;;;5033234;28;19915;-91
2024/02/07 08:28:52;;;;;;;;;;;4.10;83.40;;;;;;5017318;28;19909;-91
2024/02/07 08:31:18;;;;;;;;;;;4.10;83.80;;;;;;5016652;28;19906;-90
2024/02/07 08:33:44;;;;;;;;;;;4.10;84.10;;;;;;5018054;28;20007;-91
2024/02/07 08:36:09;;;;;;;;;;;4.10;84.30;;;;;;5017571;28;20415;-90
2024/02/07 08:38:35;;;;;;;;;;;4.20;84.30;;;;;;5026025;28;19912;-91
2024/02/07 08:41:00;;;;;;;;;;;4.10;84.10;;;;;;5017126;28;19905;-90
2024/02/07 08:43:26;;;;;;;;;;;4.20;84.40;;;;;;5017614;28;19905;-91
2024/02/07 08:45:52;;;;;;;;;;;4.20;83.80;;;;;;5016236;28;20295;-87
2024/02/07 08:48:17;;;;;;;;;;;4.20;84.10;;;;;;5015916;28;19955;-87
2024/02/07 08:50:43;;;;;;;;;;;4.20;83.80;;;;;;5037545;28;20365;-87
2024/02/07 08:53:09;;;;;;;;;;;4.20;84.00;;;;;;5037556;28;19913;-87
2024/02/07 08:55:35;;;;;;;;;;;4.30;84.30;;;;;;5037833;28;19912;-87
2024/02/07 08:58:00;;;;;;;;;;;4.30;84.30;;;;;;5037341;28;19989;-87
2024/02/07 09:00:27;;;;;;;;;;;4.40;84.50;;;;;;5036304;28;20444;-86
2024/02/07 09:02:52;;;;;;;;;;;4.40;83.60;;;;;;5037716;28;19955;-86
2024/02/07 09:05:19;;;;;;;;;;;4.50;83.70;;;;;;5036482;28;20361;-86
2024/02/07 09:07:45;;;;;;;;;;;4.50;84.00;;;;;;5019746;28;19959;-87
2024/02/07 09:10:11;;;;;;;;;;;4.50;84.30;;;;;;5037517;28;19905;-87
2024/02/07 09:12:36;;;;;;;;;;;4.40;84.60;;;;;;5037346;28;19912;-87
2024/02/07 09:15:02;;;;;;;;;;;4.40;84.40;;;;;;5037114;28;20388;-86
2024/02/07 09:17:27;;;;;;;;;;;4.40;84.40;;;;;;5037105;28;20328;-86
2024/02/07 09:19:52;;;;;;;;;;;4.30;84.50;;;;;;5037137;28;19916;-87
2024/02/07 09:22:18;;;;;;;;;;;4.40;84.50;;;;;;5037177;28;20336;-87
2024/02/07 09:24:43;;;;;;;;;;;4.50;84.50;;;;;;5037089;28;19906;-87
2024/02/07 09:27:09;;;;;;;;;;;4.60;84.50;;;;;;5036908;28;19905;-86
2024/02/07 09:29:35;;;;;;;;;;;4.60;83.80;;;;;;5019220;28;19911;-87
2024/02/07 09:32:01;;;;;;;;;;;4.60;84.00;;;;;;5036849;28;19905;-87
2024/02/07 09:34:27;;;;;;;;;;;4.70;83.70;;;;;;5036882;28;19912;-87
2024/02/07 09:36:52;;;;;;;;;;;4.80;83.20;;;;;;5036633;28;19916;-86
2024/02/07 09:39:20;;;;;;;24.53;20.43;;;4.90;83.50;;;;;;5036433;28;19904;-87
2024/02/07 09:41:46;;;;;;;31.17;20.40;;;5.00;82.90;;;;;;5018551;28;20176;-87
2024/02/07 09:44:15;;;;;;;26.60;19.93;;;5.00;82.30;;;;;;5036344;28;20184;-87
2024/02/07 09:46:43;;;;;;;26.30;19.80;;;5.00;82.70;;;;;;5018716;28;20176;-87
2024/02/07 09:49:11;;;;;;;22.63;20.30;;;5.10;82.50;;;;;;5036059;28;20707;-87
2024/02/07 09:51:39;;;;;;;25.73;21.30;;;5.00;81.70;;;;;;5035769;28;20177;-87
2024/02/07 09:54:05;;;;;;;28.93;23.63;;;5.00;81.10;;;;;;5035932;28;20172;-87
2024/02/07 09:56:31;;;;;;;35.27;22.50;;;5.00;80.40;;;;;;5018147;28;20205;-87
2024/02/07 09:58:58;;;;;;;28.63;23.57;;;4.90;80.10;;;;;;5035889;28;20192;-87
2024/02/07 10:01:27;;;;;;;28.37;22.40;;;5.00;79.90;;;;;;5035985;28;20173;-87
2024/02/07 10:03:56;;;;;;;26.80;21.77;;;4.90;80.60;;;;;;5018165;28;20179;-87
2024/02/07 10:06:24;;;;;;;29.43;22.67;;;4.80;81.30;;;;;;5018071;28;20187;-87
2024/02/07 10:08:51;;;;;;;29.67;21.77;;;4.70;81.80;;;;;;5035730;28;20192;-86
2024/02/07 10:11:17;;;;;;;25.40;22.40;;;4.80;82.30;;;;;;5035713;28;20208;-87
2024/02/07 10:13:42;;;;;;;32.37;21.93;;;4.70;82.00;;;;;;5035721;28;20204;-87
2024/02/07 10:16:09;;;;;;;27.73;22.47;;;4.80;82.10;;;;;;5017882;28;20188;-87
2024/02/07 10:18:35;;;;;;;32.37;22.10;;;4.80;81.70;;;;;;5017645;28;20564;-86
2024/02/07 10:21:02;;;;;;;35.53;23.90;;;4.90;81.10;;;;;;5035580;28;20179;-86
2024/02/07 10:23:27;;;;;;;24.57;21.10;;;5.00;81.30;;;;;;5017907;28;20172;-88
2024/02/07 10:25:55;;;;;;;28.63;24.50;;;4.90;80.80;;;;;;5035527;28;20177;-87
2024/02/07 10:28:24;;;;;;;24.60;22.00;;;5.00;80.20;;;;;;5035449;28;20275;-87
2024/02/07 10:31:02;;;;;;;;;;;5.00;80.50;;;;;;5035729;28;19912;-87
2024/02/07 10:33:41;;;;;;;28.13;23.30;;;5.00;80.20;;;;;;5017980;28;19968;-87
2024/02/07 10:36:07;;;;;;;34.40;23.23;;;5.00;79.30;;;;;;5035196;28;20164;-87
2024/02/07 10:38:34;;;;;;;32.67;23.07;;;5.10;79.10;;;;;;5017508;28;20267;-87
2024/02/07 10:41:01;;;;;;;29.50;22.57;;;5.20;79.90;;;;;;5017295;28;20176;-86
2024/02/07 10:43:28;;;;;;;24.67;21.93;;;5.30;78.70;;;;;;5017789;28;20168;-87
2024/02/07 10:46:01;;;;;;;35.60;23.37;;;5.30;78.80;;;;;;5017360;28;20264;-87
2024/02/07 10:48:28;;;;;;;28.57;23.70;;;5.30;78.20;;;;;;5017172;28;20192;-88
2024/02/07 10:50:54;;;;;;;32.90;23.50;;;5.30;77.90;;;;;;5035186;28;20169;-88
2024/02/07 10:53:20;;;;;;;44.00;39.77;;;5.30;78.00;;;;;;5017181;28;20669;-88
2024/02/07 10:55:46;;;;;;;41.07;36.97;;;5.30;77.40;;;;;;5017318;28;20555;-88
2024/02/07 10:58:16;;;;;;;42.93;38.77;;;5.30;78.40;;;;;;5034791;28;20280;-87
2024/02/07 11:00:42;;;;;;;43.00;39.00;;;5.30;78.00;;;;;;5017111;28;20328;-88
2024/02/07 11:03:09;;;;;;;42.17;37.80;;;5.30;78.00;;;;;;5034957;28;20204;-88
2024/02/07 11:05:35;;;;;;;41.90;37.80;;;5.30;78.70;;;;;;5017004;28;20204;-87
2024/02/07 11:08:01;;;;;;;40.83;37.03;;;5.20;78.70;;;;;;5034736;28;20192;-88
2024/02/07 11:10:27;;;;;;;39.77;35.90;;;5.30;79.30;;;;;;5034766;28;20183;-87
2024/02/07 11:12:55;;;;;;;42.67;38.60;;;5.30;78.80;;;;;;5016466;28;20208;-87
2024/02/07 11:15:20;;;;;;;43.87;39.87;;;5.30;78.60;;;;;;5016974;28;20263;-87
2024/02/07 11:17:47;;;;;;;41.53;37.47;;;5.40;78.60;;;;;;5034450;28;20307;-88
2024/02/07 11:20:12;;;;;;;42.33;38.93;;;5.50;78.50;;;;;;5016782;28;20223;-87
2024/02/07 11:22:49;;;;;;;43.47;39.00;;;5.40;77.80;;;;;;5016673;28;20172;-87
2024/02/07 11:25:19;;;;;;;43.67;39.60;;;5.50;77.50;;;;;;5016664;28;20217;-88
2024/02/07 11:27:44;;;;;;;44.57;40.57;;;5.60;77.10;;;;;;5016700;28;20418;-87
2024/02/07 11:30:11;;;;;;;45.23;41.23;;;5.50;76.50;;;;;;5034595;28;20253;-88
2024/02/07 11:32:40;;;;;;;44.73;40.57;;;5.60;76.40;;;;;;5034511;28;20172;-86
2024/02/07 11:35:11;;;;;;;44.73;40.80;;;5.60;76.30;;;;;;5016626;28;20176;-87
2024/02/07 11:37:37;;;;;;;;;;;5.70;76.00;;;;;;5034496;28;20212;-87
2024/02/07 11:40:13;;;;;;;;;;;5.60;74.80;;;;;;5017280;28;19955;-88
2024/02/07 11:42:39;;;;;;;;;;;5.60;74.30;;;;;;5034770;28;19905;-88
2024/02/07 11:45:05;;;;;;;;;;;5.60;74.70;;;;;;5034589;28;19905;-87
2024/02/07 11:47:34;;;;;;;;;;;5.70;74.30;;;;;;5017179;28;19912;-87
2024/02/07 11:50:02;;;;;;;;;;;5.60;73.70;;;;;;5035583;28;20411;-90
2024/02/07 11:52:28;;;;;;;;;;;5.70;73.60;;;;;;5016587;28;19971;-90
2024/02/07 11:54:59;;;;;;;;;;;5.70;74.50;;;;;;5035024;28;20420;-90
2024/02/07 11:57:25;;;;;;;34.90;31.15;;;5.60;73.30;;;;;;5032864;28;19916;-87
2024/02/07 11:59:51;;;;;;;29.40;26.13;;;5.60;74.10;;;;;;5016750;28;20172;-88
2024/02/07 12:02:17;;;;;;;29.27;26.77;;;5.70;73.90;;;;;;5034350;28;20255;-88
2024/02/07 12:04:44;;;;;;;31.60;28.20;;;5.70;73.60;;;;;;5034658;28;20169;-88
2024/02/07 12:07:11;;;;;;;31.20;27.93;;;5.70;74.30;;;;;;5034262;28;20676;-88
2024/02/07 12:09:37;;;;;;;29.37;26.50;;;5.60;74.60;;;;;;5017129;28;20191;-88
2024/02/07 12:12:03;;;;;;;30.07;27.17;;;5.40;75.40;;;;;;5035728;28;20690;-88
2024/02/07 12:14:29;;;;;;;26.33;23.60;;;5.20;77.60;;;;;;5017916;28;20623;-89
2024/02/07 12:16:54;;;;;;;25.77;23.17;;;5.00;78.90;;;;;;5035387;28;20235;-88
2024/02/07 12:19:20;;;;;;;25.73;22.77;;;5.00;78.90;;;;;;5016819;28;20176;-89
2024/02/07 12:21:46;;;;;;;25.70;23.10;;;5.10;79.40;;;;;;5016249;28;20227;-89
2024/02/07 12:24:13;;;;;;;27.73;24.93;;;5.20;79.30;;;;;;5015608;28;20176;-88
2024/02/07 12:26:39;;;;;;;27.57;24.17;;;5.10;77.90;;;;;;5033987;28;20661;-89
2024/02/07 12:29:06;;;;;;;26.37;23.57;;;5.30;78.20;;;;;;5033703;28;20596;-89
2024/02/07 12:31:33;;;;;;;27.03;24.30;;;5.30;78.50;;;;;;5017311;28;20180;-88
2024/02/07 12:33:59;;;;;;;26.67;23.87;;;5.40;78.90;;;;;;5034750;28;20318;-88
2024/02/07 12:36:24;;;;;;;29.43;26.27;;;5.40;79.00;;;;;;5016011;28;20727;-89
2024/02/07 12:38:50;;;;;;;28.67;24.50;;;5.30;77.80;;;;;;5033674;28;20272;-87
2024/02/07 12:41:15;;;;;;;29.90;24.50;;;5.30;78.70;;;;;;5034168;28;20252;-87
2024/02/07 12:43:41;;;;;;;27.47;24.70;;;5.40;78.70;;;;;;5016187;28;20176;-88
2024/02/07 12:46:07;;;;;;;28.33;25.13;;;5.50;78.70;;;;;;5033280;28;20184;-89
2024/02/07 12:48:32;;;;;;;27.47;24.60;;;5.50;77.10;;;;;;5015601;28;20686;-89
2024/02/07 12:50:59;;;;;;;26.87;24.30;;;5.60;77.60;;;;;;5015580;28;20176;-88
2024/02/07 12:53:25;;;;;;;30.00;25.67;;;5.50;77.10;;;;;;5015614;28;20233;-88
2024/02/07 12:55:52;;;;;;;27.03;24.53;;;5.60;76.80;;;;;;5015651;28;20238;-88
2024/02/07 12:58:18;;;;;;;28.70;25.70;;;5.50;76.70;;;;;;5015590;28;20223;-88
2024/02/07 13:00:44;;;;;;;27.97;25.07;;;5.50;77.00;;;;;;5033703;28;20263;-87
2024/02/07 13:03:10;;;;;;;28.13;25.30;;;5.60;77.20;;;;;;5015428;28;20199;-90
2024/02/07 13:05:35;;;;;;;32.07;27.77;;;5.60;77.60;;;;;;5015695;28;20176;-89
2024/02/07 13:08:01;;;;;;;30.20;27.30;;;5.50;76.00;;;;;;5015446;28;20202;-90
2024/02/07 13:10:27;;;;;;;30.00;27.20;;;5.40;76.20;;;;;;5015582;28;20183;-90
2024/02/07 13:12:52;;;;;;;30.37;26.17;;;5.30;75.80;;;;;;5033208;28;20595;-88
2024/02/07 13:15:19;;;;;;;44.80;41.13;;;5.50;76.40;;;;;;5015494;28;20177;-89
2024/02/07 13:17:46;;;;;;;46.90;42.60;;;5.50;76.10;;;;;;5015209;28;20208;-89
2024/02/07 13:20:12;;;;;;;48.70;44.47;;;5.50;74.80;;;;;;5015263;28;20173;-90
2024/02/07 13:22:38;;;;;;;48.07;43.17;;;5.50;74.30;;;;;;5015464;28;20547;-90
2024/02/07 13:25:09;;;;;;;48.60;44.23;;;5.60;74.40;;;;;;5015374;28;20172;-88
2024/02/07 13:27:35;;;;;;;48.17;44.37;;;5.50;74.50;;;;;;5016259;28;20197;-88
2024/02/07 13:30:01;;;;;;;;;;;5.50;73.70;;;;;;5015524;28;20205;-88
2024/02/07 13:32:27;;;;;;;;;;;5.40;72.90;;;;;;5033462;28;19959;-88
2024/02/07 13:34:52;;;;;;;;;;;5.40;72.80;;;;;;5016838;28;19909;-89
2024/02/07 13:37:18;;;;;;;;;;;5.30;73.00;;;;;;5035584;28;19920;-90
2024/02/07 13:39:43;;;;;;;;;;;5.30;72.70;;;;;;5036717;28;19916;-88
2024/02/07 13:42:09;;;;;;;;;;;5.30;72.90;;;;;;5037331;28;20373;-88
2024/02/07 13:44:34;;;;;;;;;;;5.20;72.80;;;;;;5035612;28;19909;-90
2024/02/07 13:47:01;;;;;;;;;;;5.30;74.00;;;;;;5036484;28;19905;-88
2024/02/07 13:49:26;;;;;;;;;;;5.20;73.40;;;;;;5018985;28;19905;-90
2024/02/07 13:51:52;;;;;;;;;;;5.20;73.40;;;;;;5018995;28;19916;-89
2024/02/07 13:54:19;;;;;;;;;;;5.20;73.70;;;;;;5035257;28;19916;-89
2024/02/07 13:56:44;;;;;;;;;;;5.10;73.90;;;;;;5036526;28;19992;-90
2024/02/07 13:59:10;;;;;;;;;;;5.10;74.00;;;;;;5036686;28;20454;-89
2024/02/07 14:01:37;;;;;;;;;;;5.00;74.50;;;;;;5018646;28;19905;-89
2024/02/07 14:04:03;;;;;;;;;;;5.00;75.60;;;;;;5035101;28;19924;-88
2024/02/07 14:06:29;;;;;;;;;;;5.00;75.90;;;;;;5019071;28;19905;-87